Maldegem, Belgium
Current Conditions -  °F | °C
As of 10:25 AM on Friday 24 Oct 2014 (Local Time) from EHFS Reporting Station
Overcast Overcast  
Wind Chill: 54°   Ceiling: 1400
Heat Index: 54°   Visibility: 3mi
Dew Point: 52°   Wind: 22mph
Humidity: 94%   Direction: 190°S
Pressure: 30.06"   Gusts: NA
Location:  51.21°N, 3.45°E
Report Text: EHFS 240825Z AUTO 19019KT 5000 FEW007/// SCT009/// OVC014///12/11 Q1018
Loading
Personal Weather Stations






























Interactive Weather Map
Tropical Storm Tracking
New forecast layout! Learn more

10-Day Weather Forecast

Advertisements
Track Severe Weather on mobile